createdAt,value
2019-01-20T00:01:43.006Z,14.33
2019-01-20T00:04:11.266Z,14.30
2019-01-20T00:06:39.599Z,17.73
2019-01-20T00:09:08.663Z,16.67
2019-01-20T00:11:36.931Z,15.47
2019-01-20T00:14:05.239Z,16.20
2019-01-20T00:16:33.527Z,14.90
2019-01-20T00:19:01.798Z,13.60
2019-01-20T00:21:30.090Z,14.83
2019-01-20T00:23:58.354Z,16.83
2019-01-20T00:26:26.605Z,15.57
2019-01-20T00:28:54.882Z,18.40
2019-01-20T00:31:23.122Z,17.63
2019-01-20T00:33:51.355Z,16.43
2019-01-20T00:36:20.504Z,17.93
2019-01-20T00:38:48.763Z,16.50
2019-01-20T00:41:23.842Z,14.23
2019-01-20T00:43:45.270Z,18.80
2019-01-20T00:46:13.695Z,15.03
2019-01-20T00:48:42.561Z,19.77
2019-01-20T00:51:10.850Z,19.37
2019-01-20T00:53:39.238Z,20.47
2019-01-20T00:56:07.497Z,15.33
2019-01-20T00:58:35.755Z,16.20
2019-01-20T01:01:04.022Z,16.07
2019-01-20T01:03:32.286Z,19.13
2019-01-20T01:06:01.181Z,17.80
2019-01-20T01:08:29.455Z,16.07
2019-01-20T01:10:57.685Z,16.57
2019-01-20T01:13:26.059Z,16.87
2019-01-20T01:15:54.352Z,23.70
2019-01-20T01:18:22.767Z,17.27
2019-01-20T01:20:50.978Z,20.23
2019-01-20T01:23:19.254Z,16.87
2019-01-20T01:25:47.555Z,20.80
2019-01-20T01:28:15.824Z,18.13
2019-01-20T01:30:44.105Z,18.57
2019-01-20T01:33:13.206Z,17.10
2019-01-20T01:35:41.457Z,16.40
2019-01-20T01:38:09.703Z,18.87
2019-01-20T01:40:37.979Z,19.97
2019-01-20T01:43:06.278Z,20.60
2019-01-20T01:45:34.607Z,19.93
2019-01-20T01:48:02.898Z,20.33
2019-01-20T01:50:31.203Z,17.40
2019-01-20T01:52:59.550Z,26.60
2019-01-20T01:55:27.807Z,18.60
2019-01-20T01:57:56.296Z,18.63
2019-01-20T02:00:24.554Z,20.77
2019-01-20T02:02:52.870Z,22.00
2019-01-20T02:05:21.362Z,23.23
2019-01-20T02:07:49.651Z,23.80
2019-01-20T02:10:19.779Z,22.00
2019-01-20T02:12:48.147Z,24.47
2019-01-20T02:15:17.375Z,21.33
2019-01-20T02:17:45.679Z,21.87
2019-01-20T02:20:16.117Z,21.20
2019-01-20T02:22:44.434Z,22.83
2019-01-20T02:25:12.748Z,20.37
2019-01-20T02:27:41.054Z,23.17
2019-01-20T02:30:14.737Z,24.43
2019-01-20T02:32:43.066Z,22.07
2019-01-20T02:35:11.466Z,21.17
2019-01-20T02:37:39.729Z,24.90
2019-01-20T02:40:08.960Z,20.97
2019-01-20T02:42:37.257Z,26.70
2019-01-20T02:45:06.406Z,22.87
2019-01-20T02:47:34.682Z,24.90
2019-01-20T02:50:03.015Z,24.40
2019-01-20T02:52:31.254Z,25.10
2019-01-20T02:54:59.561Z,24.90
2019-01-20T02:57:27.885Z,22.00
2019-01-20T02:59:56.154Z,24.97
2019-01-20T03:02:24.431Z,23.30
2019-01-20T03:04:52.778Z,25.93
2019-01-20T03:07:21.235Z,25.00
2019-01-20T03:09:49.540Z,26.30
2019-01-20T03:12:18.545Z,27.37
2019-01-20T03:14:46.826Z,25.67
2019-01-20T03:17:15.067Z,24.10
2019-01-20T03:19:43.339Z,24.33
2019-01-20T03:22:11.654Z,29.13
2019-01-20T03:24:39.941Z,24.47
2019-01-20T03:27:08.234Z,24.93
2019-01-20T03:29:36.508Z,23.60
2019-01-20T03:32:06.104Z,28.20
2019-01-20T03:34:34.401Z,25.60
2019-01-20T03:37:02.714Z,23.00
2019-01-20T03:39:31.034Z,26.57
2019-01-20T03:41:59.278Z,29.63
2019-01-20T03:44:27.635Z,30.77
2019-01-20T03:46:55.962Z,26.53
2019-01-20T03:49:24.305Z,28.13
2019-01-20T03:51:52.606Z,26.67
2019-01-20T03:54:20.906Z,24.93
2019-01-20T03:56:49.224Z,26.77
2019-01-20T03:59:17.554Z,28.67
2019-01-20T04:01:45.859Z,26.77
2019-01-20T04:04:14.216Z,29.07
2019-01-20T04:06:42.517Z,27.37
2019-01-20T04:09:10.839Z,25.73
2019-01-20T04:11:39.114Z,23.13
2019-01-20T04:14:07.432Z,24.40
2019-01-20T04:16:35.755Z,27.07
2019-01-20T04:19:04.013Z,27.00
2019-01-20T04:21:32.315Z,30.60
2019-01-20T04:24:00.594Z,26.47
2019-01-20T04:26:29.720Z,27.67
2019-01-20T04:28:57.978Z,29.47
2019-01-20T04:31:26.435Z,28.90
2019-01-20T04:33:54.732Z,29.97
2019-01-20T04:36:22.998Z,30.93
2019-01-20T04:38:51.244Z,32.20
2019-01-20T04:41:19.737Z,29.73
2019-01-20T04:43:48.036Z,29.77
2019-01-20T04:46:16.299Z,28.23
2019-01-20T04:48:44.598Z,29.27
2019-01-20T04:51:13.863Z,27.83
2019-01-20T04:53:42.218Z,30.40
2019-01-20T04:56:11.048Z,28.23
2019-01-20T04:58:39.275Z,32.97
2019-01-20T05:01:07.539Z,29.10
2019-01-20T05:03:35.771Z,31.30
2019-01-20T05:06:04.326Z,31.20
2019-01-20T05:08:32.610Z,30.40
2019-01-20T05:11:00.918Z,28.57
2019-01-20T05:13:29.221Z,31.07
2019-01-20T05:15:57.466Z,26.23
2019-01-20T05:18:25.705Z,27.13
2019-01-20T05:20:54.082Z,28.87
2019-01-20T05:23:22.377Z,27.90
2019-01-20T05:25:50.678Z,33.53
2019-01-20T05:28:18.955Z,28.03
2019-01-20T05:30:47.282Z,25.80
2019-01-20T05:33:15.645Z,23.93
2019-01-20T05:35:43.963Z,26.00
2019-01-20T05:38:12.206Z,28.83
2019-01-20T05:40:40.469Z,29.80
2019-01-20T05:43:08.734Z,28.23
2019-01-20T05:45:38.055Z,25.70
2019-01-20T05:48:06.663Z,29.30
2019-01-20T05:50:34.939Z,28.73
2019-01-20T05:53:04.042Z,28.20
2019-01-20T05:55:32.310Z,25.57
2019-01-20T05:58:00.675Z,27.87
2019-01-20T06:00:33.349Z,20.87
2019-01-20T06:03:01.580Z,23.40
2019-01-20T06:05:29.867Z,29.37
2019-01-20T06:07:58.167Z,27.50
2019-01-20T06:10:26.491Z,26.33
2019-01-20T06:12:54.991Z,26.40
2019-01-20T06:15:24.306Z,24.97
2019-01-20T06:17:52.550Z,27.20
2019-01-20T06:20:20.797Z,22.80
2019-01-20T06:22:49.065Z,26.07
2019-01-20T06:25:17.556Z,27.73
2019-01-20T06:27:45.888Z,29.43
2019-01-20T06:30:16.925Z,28.90
2019-01-20T06:32:46.173Z,21.33
2019-01-20T06:35:14.474Z,24.53
2019-01-20T06:37:42.838Z,20.00
2019-01-20T06:40:11.283Z,28.53
2019-01-20T06:42:39.594Z,23.27
2019-01-20T06:45:09.334Z,29.13
2019-01-20T06:47:37.595Z,24.10
2019-01-20T06:50:07.310Z,25.83
2019-01-20T06:52:35.682Z,21.93
2019-01-20T06:55:03.912Z,28.30
2019-01-20T06:57:32.231Z,22.97
2019-01-20T07:00:00.509Z,26.40
2019-01-20T07:02:28.764Z,26.27
2019-01-20T07:04:57.086Z,24.97
2019-01-20T07:07:25.430Z,26.37
2019-01-20T07:09:53.700Z,20.27
2019-01-20T07:12:21.964Z,24.00
2019-01-20T07:14:50.343Z,25.90
2019-01-20T07:17:18.630Z,27.60
2019-01-20T07:19:46.963Z,29.00
2019-01-20T07:22:15.238Z,31.80
2019-01-20T07:24:43.531Z,26.37
2019-01-20T07:27:11.810Z,24.97
2019-01-20T07:29:40.059Z,21.43
2019-01-20T07:32:08.343Z,22.70
2019-01-20T07:34:37.242Z,29.60
2019-01-20T07:37:05.523Z,21.77
2019-01-20T07:39:33.785Z,26.37
2019-01-20T07:42:02.075Z,26.43
2019-01-20T07:44:30.371Z,20.57
2019-01-20T07:46:58.595Z,20.77
2019-01-20T07:49:26.906Z,21.90
2019-01-20T07:51:55.179Z,21.70
2019-01-20T07:54:23.446Z,23.57
2019-01-20T07:56:51.743Z,21.67
2019-01-20T07:59:20.059Z,22.53
2019-01-20T08:01:49.231Z,21.40
2019-01-20T08:04:17.511Z,22.10
2019-01-20T08:06:45.822Z,24.73
2019-01-20T08:09:14.122Z,20.53
2019-01-20T08:11:42.471Z,20.97
2019-01-20T08:14:10.809Z,19.77
2019-01-20T08:16:39.033Z,19.63
2019-01-20T08:19:07.259Z,20.27
2019-01-20T08:21:35.569Z,21.00
2019-01-20T08:24:03.854Z,22.93
2019-01-20T08:26:32.305Z,21.43
2019-01-20T08:29:00.531Z,22.40
2019-01-20T08:31:28.894Z,24.83
2019-01-20T08:33:57.083Z,18.90
2019-01-20T08:36:26.378Z,18.83
2019-01-20T08:38:53.790Z,20.57
2019-01-20T08:41:22.105Z,21.47
2019-01-20T08:43:50.495Z,19.43
2019-01-20T08:46:27.545Z,21.83
2019-01-20T08:48:55.824Z,21.27
2019-01-20T08:51:24.119Z,20.77
2019-01-20T08:53:52.411Z,24.30
2019-01-20T08:56:20.699Z,20.13
2019-01-20T08:58:49.010Z,20.20
2019-01-20T09:01:17.317Z,21.30
2019-01-20T09:03:45.598Z,20.17
2019-01-20T09:06:13.934Z,21.17
2019-01-20T09:08:42.221Z,23.33
2019-01-20T09:11:10.546Z,21.97
2019-01-20T09:13:39.769Z,19.67
2019-01-20T09:16:07.171Z,22.00
2019-01-20T09:18:35.453Z,21.67
2019-01-20T09:21:03.751Z,24.10
2019-01-20T09:23:32.946Z,20.83
2019-01-20T09:26:01.305Z,22.43
2019-01-20T09:28:29.557Z,17.80
2019-01-20T09:30:57.906Z,19.90
2019-01-20T09:33:26.203Z,27.00
2019-01-20T09:35:54.463Z,25.50
2019-01-20T09:38:22.695Z,21.27
2019-01-20T09:40:51.903Z,21.93
2019-01-20T09:43:20.259Z,21.07
2019-01-20T09:45:48.623Z,27.10
2019-01-20T09:48:17.070Z,23.93
2019-01-20T09:50:45.631Z,23.67
2019-01-20T09:53:13.901Z,27.03
2019-01-20T09:55:42.166Z,21.50
2019-01-20T09:58:10.534Z,20.90
2019-01-20T10:00:38.830Z,22.53
2019-01-20T10:03:07.159Z,20.40
2019-01-20T10:05:35.563Z,21.27
2019-01-20T10:08:04.751Z,25.37
2019-01-20T10:10:33.000Z,22.23
2019-01-20T10:13:01.274Z,20.57
2019-01-20T10:15:29.502Z,20.47
2019-01-20T10:17:57.745Z,21.10
2019-01-20T10:20:28.253Z,21.33
2019-01-20T10:22:56.510Z,23.70
2019-01-20T10:25:24.812Z,26.57
2019-01-20T10:27:53.059Z,23.83
2019-01-20T10:30:24.631Z,19.77
2019-01-20T10:32:52.898Z,24.00
2019-01-20T10:35:24.612Z,24.47
2019-01-20T10:37:52.914Z,23.20
2019-01-20T10:40:21.207Z,22.50
2019-01-20T10:42:49.466Z,23.33
2019-01-20T10:45:17.812Z,20.73
2019-01-20T10:47:46.062Z,22.33
2019-01-20T10:50:14.331Z,25.17
2019-01-20T10:52:42.660Z,27.37
2019-01-20T10:55:10.981Z,22.80
2019-01-20T10:57:39.262Z,21.20
2019-01-20T11:00:13.014Z,22.53
2019-01-20T11:02:41.254Z,26.10
2019-01-20T11:05:10.262Z,22.90
2019-01-20T11:07:38.526Z,19.97
2019-01-20T11:10:07.491Z,24.83
2019-01-20T11:12:35.790Z,22.87
2019-01-20T11:15:04.814Z,19.37
2019-01-20T11:17:33.054Z,22.73
2019-01-20T11:20:01.335Z,20.27
2019-01-20T11:22:31.002Z,23.30
2019-01-20T11:24:59.291Z,22.80
2019-01-20T11:27:27.562Z,23.60
2019-01-20T11:29:55.894Z,26.20
2019-01-20T11:32:24.198Z,22.43
2019-01-20T11:34:53.161Z,26.40
2019-01-20T11:37:21.449Z,24.80
2019-01-20T11:39:49.715Z,22.53
2019-01-20T11:42:17.970Z,23.23
2019-01-20T11:44:46.239Z,19.77
2019-01-20T11:47:14.498Z,19.67
2019-01-20T11:49:43.072Z,22.67
2019-01-20T11:52:11.427Z,19.43
2019-01-20T11:54:40.331Z,20.73
2019-01-20T11:57:08.587Z,23.77
2019-01-20T11:59:37.699Z,21.80
2019-01-20T12:02:06.007Z,26.13
2019-01-20T12:04:34.998Z,24.17
2019-01-20T12:07:03.515Z,22.33
2019-01-20T12:09:31.731Z,23.63
2019-01-20T12:12:00.007Z,23.23
2019-01-20T12:14:28.315Z,20.00
2019-01-20T12:16:56.652Z,26.30
2019-01-20T12:19:24.863Z,23.10
2019-01-20T12:21:53.069Z,20.47
2019-01-20T12:24:21.298Z,24.17
2019-01-20T12:26:49.586Z,23.27
2019-01-20T12:29:17.868Z,21.97
2019-01-20T12:31:46.171Z,22.20
2019-01-20T12:34:14.504Z,24.23
2019-01-20T12:36:42.762Z,21.37
2019-01-20T12:39:11.011Z,21.03
2019-01-20T12:41:39.359Z,19.50
2019-01-20T12:44:08.440Z,18.43
2019-01-20T12:46:36.686Z,22.37
2019-01-20T12:49:05.607Z,19.77
2019-01-20T12:51:33.806Z,21.10
2019-01-20T12:54:02.035Z,19.20
2019-01-20T12:56:30.759Z,20.37
2019-01-20T12:58:59.015Z,18.47
2019-01-20T13:01:27.323Z,17.67
2019-01-20T13:03:55.653Z,21.97
2019-01-20T13:06:23.902Z,19.07
2019-01-20T13:08:52.444Z,22.00
2019-01-20T13:11:20.688Z,17.97
2019-01-20T13:13:48.936Z,18.67
2019-01-20T13:16:17.153Z,18.53
2019-01-20T13:18:45.451Z,19.83
2019-01-20T13:21:13.778Z,19.10
2019-01-20T13:23:42.030Z,20.33
2019-01-20T13:26:10.353Z,20.93
2019-01-20T13:28:39.230Z,20.53
2019-01-20T13:31:08.047Z,23.90
2019-01-20T13:33:36.919Z,23.23
2019-01-20T13:36:07.248Z,24.70
2019-01-20T13:38:35.202Z,20.30
2019-01-20T13:41:07.130Z,23.23
2019-01-20T13:43:35.882Z,19.00
2019-01-20T13:46:04.178Z,19.70
2019-01-20T13:48:32.582Z,19.60
2019-01-20T13:51:00.891Z,17.97
2019-01-20T13:56:06.362Z,17.93
2019-01-20T13:58:34.665Z,17.83
2019-01-20T14:01:03.699Z,18.50
2019-01-20T14:03:31.968Z,20.77
2019-01-20T14:06:00.310Z,18.27
2019-01-20T14:08:28.578Z,19.27
2019-01-20T14:10:56.806Z,19.73
2019-01-20T14:13:25.090Z,17.60
2019-01-20T14:15:53.461Z,21.60
2019-01-20T14:18:21.710Z,16.53
2019-01-20T14:20:50.100Z,18.83
2019-01-20T14:23:18.384Z,21.83
2019-01-20T14:25:46.630Z,17.90
2019-01-20T14:28:14.843Z,20.63
2019-01-20T14:30:43.126Z,19.60
2019-01-20T14:33:11.370Z,30.50
2019-01-20T14:35:39.670Z,17.33
2019-01-20T14:38:08.062Z,17.07
2019-01-20T14:40:36.525Z,17.27
2019-01-20T14:43:04.863Z,18.60
2019-01-20T14:45:33.071Z,17.80
2019-01-20T14:48:01.302Z,16.93
2019-01-20T14:50:29.604Z,17.90
2019-01-20T14:52:57.904Z,17.53
2019-01-20T14:55:26.186Z,19.30
2019-01-20T14:57:54.481Z,16.27
2019-01-20T15:00:30.313Z,17.27
2019-01-20T15:02:58.542Z,20.33
2019-01-20T15:05:26.961Z,15.80
2019-01-20T15:07:55.271Z,19.10
2019-01-20T15:10:24.386Z,17.73
2019-01-20T15:12:52.930Z,21.73
2019-01-20T15:15:23.714Z,20.67
2019-01-20T15:17:51.941Z,30.30
2019-01-20T15:20:20.341Z,27.27
2019-01-20T15:22:48.582Z,19.10
2019-01-20T15:25:16.822Z,19.23
2019-01-20T15:27:45.036Z,16.67
2019-01-20T15:30:17.811Z,19.93
2019-01-20T15:32:44.604Z,20.00
2019-01-20T15:35:12.955Z,18.93
2019-01-20T15:37:41.250Z,17.50
2019-01-20T15:40:10.161Z,19.37
2019-01-20T15:42:38.447Z,19.83
2019-01-20T15:45:16.174Z,18.97
2019-01-20T15:47:37.351Z,19.23
2019-01-20T15:50:08.610Z,22.00
2019-01-20T15:52:36.974Z,18.10
2019-01-20T15:55:05.778Z,17.33
2019-01-20T15:57:34.067Z,21.17
2019-01-20T16:00:02.326Z,23.03
2019-01-20T16:02:30.615Z,23.60
2019-01-20T16:04:58.919Z,24.83
2019-01-20T16:07:27.182Z,19.47
2019-01-20T16:09:56.055Z,18.57
2019-01-20T16:12:24.335Z,22.23
2019-01-20T16:14:52.717Z,20.30
2019-01-20T16:17:21.949Z,21.97
2019-01-20T16:19:50.206Z,22.40
2019-01-20T16:22:18.477Z,20.53
2019-01-20T16:24:46.675Z,24.47
2019-01-20T16:27:14.914Z,27.60
2019-01-20T16:29:43.246Z,23.90
2019-01-20T16:32:11.574Z,23.23
2019-01-20T16:34:39.917Z,23.23
2019-01-20T16:37:08.166Z,25.97
2019-01-20T16:39:36.435Z,26.10
2019-01-20T16:42:04.766Z,25.43
2019-01-20T16:44:33.029Z,22.20
2019-01-20T16:47:01.327Z,26.13
2019-01-20T16:49:29.584Z,25.50
2019-01-20T16:51:57.874Z,25.83
2019-01-20T16:54:26.119Z,29.63
2019-01-20T16:56:55.866Z,27.30
2019-01-20T16:59:24.157Z,36.17
2019-01-20T17:01:52.885Z,34.40
2019-01-20T17:04:21.145Z,29.20
2019-01-20T17:06:49.322Z,27.23
2019-01-20T17:09:17.640Z,25.73
2019-01-20T17:11:45.926Z,27.43
2019-01-20T17:14:14.339Z,26.83
2019-01-20T17:16:42.580Z,29.43
2019-01-20T17:19:17.219Z,28.60
2019-01-20T17:21:39.117Z,28.40
2019-01-20T17:24:07.879Z,28.00
2019-01-20T17:26:36.129Z,27.30
2019-01-20T17:29:04.449Z,31.90
2019-01-20T17:31:32.757Z,30.43
2019-01-20T17:34:00.995Z,28.17
2019-01-20T17:36:29.365Z,28.63
2019-01-20T17:38:57.616Z,27.87
2019-01-20T17:41:25.900Z,31.53
2019-01-20T17:43:54.210Z,30.37
2019-01-20T17:46:22.483Z,25.40
2019-01-20T17:48:50.755Z,30.17
2019-01-20T17:51:19.058Z,32.37
2019-01-20T17:53:47.307Z,28.00
2019-01-20T17:56:15.559Z,29.63
2019-01-20T17:58:43.833Z,28.10
2019-01-20T18:01:12.134Z,30.37
2019-01-20T18:03:40.406Z,29.33
2019-01-20T18:06:08.977Z,32.10
2019-01-20T18:08:37.520Z,33.50
2019-01-20T18:11:05.798Z,29.60
2019-01-20T18:13:34.071Z,33.87
2019-01-20T18:16:02.351Z,31.53
2019-01-20T18:18:30.663Z,34.80
2019-01-20T18:20:58.902Z,32.47
2019-01-20T18:23:27.176Z,32.93
2019-01-20T18:25:56.053Z,33.30
2019-01-20T18:28:24.328Z,38.20
2019-01-20T18:30:52.668Z,34.80
2019-01-20T18:33:21.373Z,37.30
2019-01-20T18:35:49.678Z,35.87
2019-01-20T18:38:18.096Z,33.67
2019-01-20T18:40:46.380Z,33.73
2019-01-20T18:43:15.060Z,32.57
2019-01-20T18:45:43.303Z,33.00
2019-01-20T18:48:11.614Z,37.87
2019-01-20T18:50:39.901Z,31.93
2019-01-20T18:53:08.200Z,36.80
2019-01-20T18:55:37.070Z,36.93
2019-01-20T18:58:06.101Z,33.67
2019-01-20T19:00:40.134Z,34.07
2019-01-20T19:03:09.018Z,36.80
2019-01-20T19:05:37.317Z,37.03
2019-01-20T19:08:05.574Z,35.83
2019-01-20T19:10:34.487Z,38.53
2019-01-20T19:13:02.742Z,33.67
2019-01-20T19:15:30.967Z,35.37
2019-01-20T19:17:59.286Z,32.87
2019-01-20T19:20:27.530Z,36.13
2019-01-20T19:22:56.031Z,29.20
2019-01-20T19:25:24.386Z,34.97
2019-01-20T19:27:52.678Z,32.47
2019-01-20T19:30:26.088Z,31.30
2019-01-20T19:32:55.430Z,34.97
2019-01-20T19:35:23.765Z,31.57
2019-01-20T19:37:52.054Z,32.43
2019-01-20T19:40:20.358Z,36.60
2019-01-20T19:42:48.643Z,35.17
2019-01-20T19:45:17.586Z,33.70
2019-01-20T19:47:45.879Z,33.87
2019-01-20T19:50:14.518Z,34.63
2019-01-20T19:52:42.841Z,34.17
2019-01-20T19:55:14.008Z,37.30
2019-01-20T19:57:42.311Z,36.27
2019-01-20T20:00:13.747Z,32.93
2019-01-20T20:02:42.029Z,37.93
2019-01-20T20:05:13.055Z,34.77
2019-01-20T20:07:41.332Z,38.60
2019-01-20T20:10:10.734Z,31.43
2019-01-20T20:12:38.990Z,35.40
2019-01-20T20:15:10.161Z,34.83
2019-01-20T20:17:38.483Z,32.60
2019-01-20T20:20:08.846Z,33.10
2019-01-20T20:22:37.129Z,34.03
2019-01-20T20:25:06.539Z,34.30
2019-01-20T20:27:34.878Z,35.80
2019-01-20T20:30:03.295Z,40.77
2019-01-20T20:32:31.569Z,35.00
2019-01-20T20:34:59.804Z,37.67
2019-01-20T20:37:28.038Z,35.00
2019-01-20T20:39:56.319Z,38.67
2019-01-20T20:42:24.662Z,37.47
2019-01-20T20:44:52.949Z,36.30
2019-01-20T20:47:21.253Z,34.37
2019-01-20T20:49:49.527Z,37.07
2019-01-20T20:52:17.843Z,38.97
2019-01-20T20:54:46.140Z,34.27
2019-01-20T20:57:14.425Z,37.97
2019-01-20T20:59:42.683Z,33.67
2019-01-20T21:02:10.993Z,37.00
2019-01-20T21:04:39.331Z,35.00
2019-01-20T21:07:08.550Z,35.77
2019-01-20T21:09:37.456Z,37.40
2019-01-20T21:12:08.788Z,35.63
2019-01-20T21:14:37.018Z,38.53
2019-01-20T21:17:05.773Z,35.67
2019-01-20T21:19:34.061Z,31.87
2019-01-20T21:22:02.250Z,34.83
2019-01-20T21:24:31.157Z,33.83
2019-01-20T21:26:59.434Z,32.40
2019-01-20T21:29:27.620Z,38.20
2019-01-20T21:31:55.869Z,32.90
2019-01-20T21:34:25.105Z,33.73
2019-01-20T21:36:54.258Z,34.23
2019-01-20T21:39:22.487Z,35.93
2019-01-20T21:41:50.795Z,33.70
2019-01-20T21:44:18.999Z,32.80
2019-01-20T21:46:47.236Z,34.20
2019-01-20T21:49:15.495Z,33.30
2019-01-20T21:51:43.858Z,40.37
2019-01-20T21:54:12.084Z,37.77
2019-01-20T21:56:43.335Z,35.40
2019-01-20T21:59:11.626Z,36.40
2019-01-20T22:01:40.840Z,38.07
2019-01-20T22:04:09.160Z,33.40
2019-01-20T22:06:37.431Z,37.67
2019-01-20T22:09:07.391Z,37.73
2019-01-20T22:11:35.714Z,31.23
2019-01-20T22:14:03.994Z,39.47
2019-01-20T22:16:32.251Z,40.43
2019-01-20T22:19:01.473Z,34.27
2019-01-20T22:21:29.773Z,38.23
2019-01-20T22:23:58.121Z,37.87
2019-01-20T22:26:26.367Z,33.57
2019-01-20T22:28:54.619Z,38.27
2019-01-20T22:31:23.474Z,36.13
2019-01-20T22:33:51.715Z,35.67
2019-01-20T22:36:19.983Z,35.27
2019-01-20T22:38:48.278Z,35.30
2019-01-20T22:41:17.133Z,41.47
2019-01-20T22:43:45.457Z,35.43
2019-01-20T22:46:13.673Z,43.33
2019-01-20T22:48:41.925Z,38.20
2019-01-20T22:51:10.217Z,38.90
2019-01-20T22:53:38.414Z,37.33
2019-01-20T22:56:07.217Z,36.93
2019-01-20T22:58:35.650Z,44.00
2019-01-20T23:01:11.485Z,31.67
2019-01-20T23:03:39.833Z,38.60
2019-01-20T23:06:09.862Z,35.13
2019-01-20T23:08:38.142Z,36.23
2019-01-20T23:11:06.463Z,35.57
2019-01-20T23:13:34.727Z,38.07
2019-01-20T23:16:03.026Z,36.03
2019-01-20T23:18:31.614Z,37.77
2019-01-20T23:20:59.914Z,39.47
2019-01-20T23:23:28.216Z,39.13
2019-01-20T23:25:56.446Z,38.17
2019-01-20T23:28:24.752Z,41.43
2019-01-20T23:30:53.111Z,40.50
2019-01-20T23:33:21.351Z,38.23
2019-01-20T23:35:51.130Z,33.50
2019-01-20T23:38:19.366Z,37.20
2019-01-20T23:40:47.682Z,39.40
2019-01-20T23:43:15.991Z,45.90
2019-01-20T23:45:44.362Z,39.50
2019-01-20T23:48:12.681Z,38.73
2019-01-20T23:50:41.007Z,37.60
2019-01-20T23:53:09.362Z,34.47
2019-01-20T23:55:37.667Z,40.57
2019-01-20T23:58:05.986Z,38.87
